Time;durP1;ratioP1;P1;durP2;ratioP2;P2;SDS_P1;SDS_P2;PMS_P1;PMS_P2;Temp;Humidity;BMP_temperature;BMP_pressure;BME280_temperature;BME280_humidity;BME280_pressure;Samples;Min_cycle;Max_cycle;Signal;HPM_P1;HPM_P2
2023/12/02 00:00:04;;;;;;;1.35;1.25;;;3.50;65.70;;;;;;5052858;28;20049;-73
2023/12/02 00:02:29;;;;;;;1.10;1.10;;;3.50;65.40;;;;;;5053519;28;20056;-72
2023/12/02 00:04:55;;;;;;;0.60;0.60;;;3.40;65.50;;;;;;5052963;28;20029;-73
2023/12/02 00:07:20;;;;;;;0.85;0.85;;;3.50;65.50;;;;;;5053165;28;20955;-73
2023/12/02 00:09:46;;;;;;;0.55;0.55;;;3.40;65.20;;;;;;5060741;28;20079;-73
2023/12/02 00:12:11;;;;;;;0.75;0.75;;;3.40;65.00;;;;;;5053936;28;20519;-73
2023/12/02 00:14:37;;;;;;;0.60;0.60;;;3.40;64.80;;;;;;5052849;28;20108;-73
2023/12/02 00:17:03;;;;;;;2.17;2.00;;;3.40;65.00;;;;;;5053681;28;20040;-73
2023/12/02 00:19:28;;;;;;;0.80;0.80;;;3.30;64.80;;;;;;5053908;28;20456;-73
2023/12/02 00:21:54;;;;;;;1.50;1.40;;;3.30;65.10;;;;;;5054365;28;20037;-73
2023/12/02 00:24:19;;;;;;;1.10;1.10;;;3.30;65.10;;;;;;5053864;28;20025;-73
2023/12/02 00:26:44;;;;;;;0.60;0.60;;;3.30;65.00;;;;;;5052193;28;20033;-72
2023/12/02 00:29:10;;;;;;;0.52;0.52;;;3.30;65.00;;;;;;5052256;28;20036;-72
2023/12/02 00:31:35;;;;;;;0.70;0.70;;;3.30;65.20;;;;;;5054039;28;20108;-73
2023/12/02 00:34:01;;;;;;;0.93;0.93;;;3.30;65.10;;;;;;5053712;28;20155;-73
2023/12/02 00:36:26;;;;;;;0.60;0.60;;;3.30;65.10;;;;;;5053946;28;20481;-73
2023/12/02 00:38:52;;;;;;;0.82;0.82;;;3.30;65.20;;;;;;5053731;28;20122;-72
2023/12/02 00:41:17;;;;;;;0.70;0.70;;;3.30;65.40;;;;;;5052284;28;20043;-73
2023/12/02 00:43:43;;;;;;;1.17;1.08;;;3.30;65.50;;;;;;5053298;28;20017;-73
2023/12/02 00:46:08;;;;;;;1.02;1.02;;;3.30;65.20;;;;;;5065265;28;20078;-72
2023/12/02 00:48:34;;;;;;;0.90;0.90;;;3.30;65.40;;;;;;5073284;28;20099;-73
2023/12/02 00:50:59;;;;;;;0.50;0.50;;;3.40;65.60;;;;;;5073419;28;20093;-73
2023/12/02 00:53:25;;;;;;;0.60;0.60;;;3.40;65.80;;;;;;5073543;28;20107;-73
2023/12/02 00:55:50;;;;;;;0.60;0.60;;;3.40;65.70;;;;;;5073369;28;20043;-73
2023/12/02 00:58:16;;;;;;;1.80;1.70;;;3.40;65.70;;;;;;5072781;28;20025;-72
2023/12/02 01:00:41;;;;;;;0.60;0.60;;;3.50;65.80;;;;;;5073384;28;20449;-73
2023/12/02 01:03:07;;;;;;;0.80;0.80;;;3.50;65.50;;;;;;5073216;28;20503;-73
2023/12/02 01:05:32;;;;;;;1.38;1.30;;;3.50;65.60;;;;;;5073144;28;20071;-72
2023/12/02 01:07:58;;;;;;;1.80;1.70;;;3.40;65.40;;;;;;5073231;28;20021;-73
2023/12/02 01:10:23;;;;;;;0.63;0.63;;;3.40;65.40;;;;;;5073058;28;20032;-73
2023/12/02 01:12:49;;;;;;;0.70;0.70;;;3.50;65.60;;;;;;5072729;28;20031;-72
2023/12/02 01:15:14;;;;;;;2.25;1.33;;;3.50;65.80;;;;;;5072843;28;20045;-72
2023/12/02 01:17:40;;;;;;;0.50;0.50;;;3.50;65.90;;;;;;5066685;28;20476;-72
2023/12/02 01:20:06;;;;;;;1.42;1.33;;;3.50;66.00;;;;;;5052470;28;20033;-73
2023/12/02 01:22:32;;;;;;;0.70;0.70;;;3.50;65.90;;;;;;5052621;28;20548;-72
2023/12/02 01:24:57;;;;;;;0.52;0.52;;;3.50;66.00;;;;;;5050423;28;20082;-72
2023/12/02 01:27:23;;;;;;;0.60;0.60;;;3.50;66.10;;;;;;5052644;28;20078;-72
2023/12/02 01:29:48;;;;;;;0.60;0.60;;;3.60;66.00;;;;;;5052518;28;20013;-73
2023/12/02 01:32:13;;;;;;;0.80;0.80;;;3.60;65.90;;;;;;5052534;28;20099;-72
2023/12/02 01:34:39;;;;;;;0.70;0.70;;;3.60;65.90;;;;;;5050281;28;20377;-72
2023/12/02 01:37:04;;;;;;;1.60;1.50;;;3.60;65.80;;;;;;5053258;28;20045;-72
2023/12/02 01:39:30;;;;;;;0.50;0.50;;;3.60;65.80;;;;;;5052176;28;20029;-73
2023/12/02 01:41:55;;;;;;;0.88;0.88;;;3.60;65.80;;;;;;5052976;28;20029;-73
2023/12/02 01:44:21;;;;;;;0.82;0.82;;;3.60;65.80;;;;;;5052153;28;20021;-73
2023/12/02 01:46:46;;;;;;;1.13;1.13;;;3.60;65.80;;;;;;5069513;28;20482;-73
2023/12/02 01:49:13;;;;;;;1.20;1.17;;;3.60;65.60;;;;;;5072212;28;20040;-73
2023/12/02 01:51:38;;;;;;;1.42;0.95;;;3.60;65.70;;;;;;5073026;28;20024;-73
2023/12/02 01:54:04;;;;;;;1.02;1.02;;;3.60;65.80;;;;;;5072043;28;20032;-73
2023/12/02 01:56:30;;;;;;;1.40;1.25;;;3.60;65.90;;;;;;5072426;28;20040;-72
2023/12/02 01:58:56;;;;;;;0.60;0.60;;;3.70;65.90;;;;;;5072073;28;20036;-72
2023/12/02 02:01:21;;;;;;;0.70;0.70;;;3.70;65.90;;;;;;5071834;28;20489;-72
2023/12/02 02:03:50;;;;;;;1.00;1.00;;;3.70;65.80;;;;;;5071915;28;20028;-72
2023/12/02 02:06:16;;;;;;;0.88;0.85;;;3.70;65.90;;;;;;5072209;28;20029;-72
2023/12/02 02:08:41;;;;;;;0.80;0.80;;;3.60;65.70;;;;;;5071179;28;20110;-72
2023/12/02 02:11:07;;;;;;;1.58;1.27;;;3.60;65.60;;;;;;5072153;28;20407;-72
2023/12/02 02:13:33;;;;;;;0.68;0.68;;;3.70;65.70;;;;;;5071733;28;20388;-73
2023/12/02 02:15:58;;;;;;;1.13;1.13;;;3.60;65.80;;;;;;5071955;28;20037;-72
2023/12/02 02:18:24;;;;;;;0.90;0.90;;;3.60;65.60;;;;;;5071706;28;20109;-72
2023/12/02 02:20:51;;;;;;;1.95;1.80;;;3.60;65.70;;;;;;5071859;28;20055;-72
2023/12/02 02:23:18;;;;;;;1.10;1.10;;;3.60;65.60;;;;;;5071811;28;20021;-72
2023/12/02 02:25:44;;;;;;;1.02;1.02;;;3.60;65.60;;;;;;5071971;28;20067;-72
2023/12/02 02:28:09;;;;;;;0.60;0.60;;;3.60;65.50;;;;;;5071775;28;20056;-72
2023/12/02 02:30:36;;;;;;;1.02;1.02;;;3.60;65.30;;;;;;5071959;28;20097;-72
2023/12/02 02:33:01;;;;;;;2.05;1.95;;;3.50;65.00;;;;;;5071448;28;20021;-72
2023/12/02 02:35:27;;;;;;;1.15;1.15;;;3.50;65.00;;;;;;5071630;28;20349;-72
2023/12/02 02:37:53;;;;;;;0.70;0.70;;;3.50;64.80;;;;;;5071454;28;20075;-72
2023/12/02 02:40:19;;;;;;;0.60;0.60;;;3.40;65.00;;;;;;5071669;28;20411;-72
2023/12/02 02:42:45;;;;;;;0.63;0.63;;;3.40;65.20;;;;;;5070486;28;20020;-71
2023/12/02 02:45:10;;;;;;;0.70;0.70;;;3.40;65.20;;;;;;5067603;28;20033;-72
2023/12/02 02:47:36;;;;;;;0.60;0.60;;;3.40;65.00;;;;;;5050414;28;20382;-71
2023/12/02 02:50:02;;;;;;;0.60;0.60;;;3.40;65.10;;;;;;5051307;28;20029;-72
2023/12/02 02:52:28;;;;;;;1.33;1.05;;;3.30;65.20;;;;;;5051493;28;20025;-72
2023/12/02 02:54:53;;;;;;;0.82;0.82;;;3.40;65.30;;;;;;5051311;28;20051;-72
2023/12/02 02:57:22;;;;;;;1.30;1.20;;;3.40;65.30;;;;;;5050086;28;20048;-72
2023/12/02 02:59:48;;;;;;;0.70;0.70;;;3.40;65.40;;;;;;5051668;28;20025;-72
2023/12/02 03:02:13;;;;;;;0.80;0.80;;;3.40;65.30;;;;;;5051105;28;20083;-72
2023/12/02 03:04:39;;;;;;;0.98;0.98;;;3.40;65.30;;;;;;5051167;28;20495;-73
2023/12/02 03:07:04;;;;;;;0.70;0.70;;;3.40;65.60;;;;;;5051713;28;20044;-73
2023/12/02 03:09:30;;;;;;;0.57;0.57;;;3.40;65.60;;;;;;5051228;28;20025;-73
2023/12/02 03:11:55;;;;;;;0.65;0.65;;;3.40;65.50;;;;;;5051800;28;20033;-73
2023/12/02 03:14:21;;;;;;;0.82;0.82;;;3.50;65.70;;;;;;5051302;28;20516;-73
2023/12/02 03:16:46;;;;;;;0.60;0.60;;;3.50;65.80;;;;;;5051535;28;20043;-73
2023/12/02 03:19:12;;;;;;;0.85;0.85;;;3.50;65.80;;;;;;5051099;28;20037;-73
2023/12/02 03:21:37;;;;;;;0.60;0.60;;;3.50;65.70;;;;;;5054690;28;20048;-73
2023/12/02 03:24:03;;;;;;;0.60;0.60;;;3.50;65.50;;;;;;5055183;28;20032;-72
2023/12/02 03:26:29;;;;;;;0.82;0.82;;;3.50;65.60;;;;;;5054023;28;20055;-72
2023/12/02 03:28:54;;;;;;;0.93;0.90;;;3.50;65.50;;;;;;5055409;28;20025;-73
2023/12/02 03:31:20;;;;;;;0.85;0.85;;;3.50;65.50;;;;;;5055271;28;20032;-73
2023/12/02 03:33:45;;;;;;;0.60;0.60;;;3.50;65.60;;;;;;5054888;28;20021;-73
2023/12/02 03:36:11;;;;;;;4.10;1.30;;;3.50;65.40;;;;;;5055171;28;20029;-73
2023/12/02 03:38:38;;;;;;;0.63;0.63;;;3.50;65.20;;;;;;5054786;28;20412;-73
2023/12/02 03:41:04;;;;;;;0.95;0.95;;;3.50;65.20;;;;;;5055059;28;20476;-73
2023/12/02 03:43:29;;;;;;;1.45;1.38;;;3.50;64.90;;;;;;5054624;28;20113;-72
2023/12/02 03:45:55;;;;;;;1.45;1.35;;;3.40;64.80;;;;;;5053450;28;20107;-73
2023/12/02 03:48:21;;;;;;;0.80;0.80;;;3.40;65.00;;;;;;5054588;28;20472;-72
2023/12/02 03:50:46;;;;;;;0.60;0.60;;;3.30;65.00;;;;;;5054723;28;20044;-73
2023/12/02 03:53:12;;;;;;;1.02;1.02;;;3.40;65.10;;;;;;5054686;28;20025;-73
2023/12/02 03:55:37;;;;;;;0.60;0.60;;;3.40;65.00;;;;;;5054738;28;20108;-73
2023/12/02 03:58:04;;;;;;;1.10;1.02;;;3.30;64.80;;;;;;5054689;28;20048;-71
2023/12/02 04:00:30;;;;;;;0.80;0.80;;;3.40;65.10;;;;;;5054784;28;20125;-70
2023/12/02 04:02:55;;;;;;;0.60;0.60;;;3.30;65.10;;;;;;5053376;28;20078;-71
2023/12/02 04:05:20;;;;;;;0.60;0.60;;;3.30;65.30;;;;;;5054344;28;20483;-70
2023/12/02 04:07:46;;;;;;;1.50;1.40;;;3.40;65.20;;;;;;5054412;28;20112;-70
2023/12/02 04:10:11;;;;;;;2.95;1.13;;;3.30;64.90;;;;;;5054214;28;20376;-71
2023/12/02 04:12:37;;;;;;;3.42;2.58;;;3.30;65.10;;;;;;5054309;28;20033;-70
2023/12/02 04:15:04;;;;;;;0.82;0.82;;;3.30;65.30;;;;;;5054187;28;20108;-72
2023/12/02 04:17:30;;;;;;;0.82;0.82;;;3.40;65.00;;;;;;5054509;28;20481;-70
2023/12/02 04:19:55;;;;;;;0.60;0.60;;;3.30;65.30;;;;;;5054115;28;20077;-70
2023/12/02 04:22:20;;;;;;;0.60;0.60;;;3.30;65.40;;;;;;5054036;28;20029;-70
2023/12/02 04:24:46;;;;;;;0.63;0.63;;;3.40;64.90;;;;;;5053819;28;20032;-70
2023/12/02 04:27:12;;;;;;;0.80;0.80;;;3.30;65.00;;;;;;5053918;28;20171;-71
2023/12/02 04:29:41;;;;;;;0.50;0.50;;;3.30;65.00;;;;;;5053979;28;20021;-71
2023/12/02 04:32:08;;;;;;;0.73;0.73;;;3.30;65.30;;;;;;5053707;28;20075;-70
2023/12/02 04:34:34;;;;;;;1.48;1.40;;;3.30;65.20;;;;;;5054078;28;20025;-70
2023/12/02 04:37:00;;;;;;;0.90;0.90;;;3.30;65.40;;;;;;5054447;28;20033;-71
2023/12/02 04:39:27;;;;;;;0.50;0.50;;;3.30;65.50;;;;;;5053764;28;20033;-70
2023/12/02 04:41:53;;;;;;;0.80;0.80;;;3.40;65.80;;;;;;5054066;28;20025;-70
2023/12/02 04:44:20;;;;;;;0.70;0.70;;;3.50;66.00;;;;;;5052241;28;20040;-71
2023/12/02 04:46:45;;;;;;;1.15;1.15;;;3.50;66.00;;;;;;5053780;28;20029;-71
2023/12/02 04:49:12;;;;;;;0.50;0.50;;;3.50;66.00;;;;;;5053569;28;20056;-71
2023/12/02 04:51:38;;;;;;;1.05;1.00;;;3.60;66.00;;;;;;5053957;28;20032;-72
2023/12/02 04:54:03;;;;;;;0.85;0.85;;;3.60;65.90;;;;;;5053775;28;20033;-71
2023/12/02 04:56:29;;;;;;;0.70;0.70;;;3.60;65.80;;;;;;5053763;28;20037;-71
2023/12/02 04:58:56;;;;;;;0.80;0.80;;;3.60;65.30;;;;;;5053230;28;20064;-70
2023/12/02 05:01:21;;;;;;;0.60;0.60;;;3.60;65.10;;;;;;5053640;28;20444;-70
2023/12/02 05:03:47;;;;;;;2.10;2.00;;;3.60;65.10;;;;;;5053289;28;20041;-70
2023/12/02 05:06:14;;;;;;;0.60;0.60;;;3.50;65.30;;;;;;5053572;28;20119;-72
2023/12/02 05:08:40;;;;;;;0.70;0.70;;;3.50;65.40;;;;;;5053393;28;20029;-73
2023/12/02 05:11:06;;;;;;;0.90;0.90;;;3.50;65.50;;;;;;5053491;28;20017;-72
2023/12/02 05:13:31;;;;;;;0.63;0.63;;;3.50;65.70;;;;;;5053121;28;20064;-72
2023/12/02 05:15:57;;;;;;;0.55;0.55;;;3.50;65.80;;;;;;5053233;28;20460;-72
2023/12/02 05:18:22;;;;;;;0.98;0.95;;;3.50;65.80;;;;;;5053079;28;20059;-73
2023/12/02 05:20:49;;;;;;;0.68;0.68;;;3.60;65.80;;;;;;5052940;28;20083;-72
2023/12/02 05:23:14;;;;;;;1.13;1.13;;;3.60;65.80;;;;;;5052949;28;20040;-73
2023/12/02 05:25:40;;;;;;;0.52;0.52;;;3.70;65.90;;;;;;5053096;28;20033;-72
2023/12/02 05:28:06;;;;;;;1.15;1.15;;;3.70;65.90;;;;;;5052901;28;20063;-73
2023/12/02 05:30:33;;;;;;;0.50;0.50;;;3.80;65.90;;;;;;5052596;28;20021;-72
2023/12/02 05:32:59;;;;;;;0.68;0.68;;;3.80;65.90;;;;;;5052400;28;20035;-72
2023/12/02 05:35:24;;;;;;;1.23;1.15;;;3.80;65.80;;;;;;5052711;28;20037;-73
2023/12/02 05:37:50;;;;;;;0.82;0.82;;;3.80;65.80;;;;;;5052691;28;20029;-72
2023/12/02 05:40:17;;;;;;;0.60;0.60;;;3.80;65.60;;;;;;5052914;28;20052;-72
2023/12/02 05:42:42;;;;;;;0.52;0.52;;;3.80;65.70;;;;;;5052843;28;20031;-73
2023/12/02 05:45:09;;;;;;;0.63;0.63;;;3.80;65.70;;;;;;5049917;28;20024;-73
2023/12/02 05:47:34;;;;;;;0.60;0.60;;;3.80;65.70;;;;;;5052614;28;20104;-73
2023/12/02 05:50:00;;;;;;;0.50;0.50;;;3.80;65.70;;;;;;5052329;28;20116;-72
2023/12/02 05:52:25;;;;;;;0.80;0.80;;;3.90;65.50;;;;;;5052434;28;20025;-72
2023/12/02 05:54:51;;;;;;;0.60;0.60;;;3.80;65.70;;;;;;5052416;28;20032;-70
2023/12/02 05:57:16;;;;;;;0.63;0.63;;;3.90;65.80;;;;;;5051141;28;20032;-70
2023/12/02 05:59:42;;;;;;;0.60;0.60;;;3.90;65.80;;;;;;5052063;28;20384;-71
2023/12/02 06:02:07;;;;;;;1.63;0.90;;;3.90;65.90;;;;;;5051156;28;20021;-71
2023/12/02 06:04:33;;;;;;;1.10;1.10;;;3.90;65.90;;;;;;5052159;28;20033;-72
2023/12/02 06:06:59;;;;;;;0.63;0.63;;;3.90;66.00;;;;;;5052382;28;20033;-72
2023/12/02 06:09:24;;;;;;;0.60;0.60;;;3.90;66.00;;;;;;5052107;28;20021;-72
2023/12/02 06:11:50;;;;;;;0.60;0.60;;;3.90;66.00;;;;;;5052738;28;20095;-72
2023/12/02 06:14:15;;;;;;;0.60;0.60;;;4.00;65.90;;;;;;5052017;28;20033;-71
2023/12/02 06:16:41;;;;;;;0.50;0.50;;;4.00;65.90;;;;;;5052603;28;20036;-71
2023/12/02 06:19:06;;;;;;;1.75;1.15;;;4.00;65.90;;;;;;5051989;28;20481;-71
2023/12/02 06:21:32;;;;;;;0.80;0.80;;;4.00;65.90;;;;;;5052440;28;20021;-72
2023/12/02 06:23:57;;;;;;;0.63;0.63;;;4.00;65.70;;;;;;5051979;28;20128;-72
2023/12/02 06:26:23;;;;;;;0.60;0.60;;;4.00;65.70;;;;;;5052296;28;20035;-72
2023/12/02 06:28:49;;;;;;;0.57;0.57;;;4.00;65.80;;;;;;5051739;28;20059;-72
2023/12/02 06:31:16;;;;;;;0.65;0.65;;;4.00;65.70;;;;;;5052003;28;20021;-72
2023/12/02 06:33:41;;;;;;;0.60;0.60;;;4.00;65.80;;;;;;5051930;28;20033;-72
2023/12/02 06:36:08;;;;;;;0.60;0.60;;;4.00;65.80;;;;;;5050535;28;20361;-71
2023/12/02 06:38:35;;;;;;;1.00;1.00;;;4.00;65.80;;;;;;5051888;28;20032;-73
2023/12/02 06:41:02;;;;;;;0.70;0.70;;;4.00;65.90;;;;;;5051681;28;20021;-72
2023/12/02 06:43:28;;;;;;;0.60;0.60;;;4.00;65.90;;;;;;5051949;28;20044;-72
2023/12/02 06:45:53;;;;;;;5.22;1.52;;;4.10;66.00;;;;;;5051688;28;20033;-72
2023/12/02 06:48:19;;;;;;;1.30;1.05;;;4.00;65.80;;;;;;5051858;28;20397;-71
2023/12/02 06:50:44;;;;;;;1.17;1.17;;;4.10;65.80;;;;;;5051581;28;20029;-72
2023/12/02 06:53:13;;;;;;;0.80;0.80;;;4.00;65.60;;;;;;5051476;28;20025;-72
2023/12/02 06:55:39;;;;;;;0.63;0.63;;;4.00;65.60;;;;;;5051521;28;20021;-72
2023/12/02 06:58:04;;;;;;;0.82;0.82;;;4.00;65.60;;;;;;5051333;28;20037;-72
2023/12/02 07:00:30;;;;;;;0.60;0.60;;;4.00;65.60;;;;;;5051885;28;20090;-72
2023/12/02 07:02:55;;;;;;;0.60;0.60;;;4.00;65.60;;;;;;5051391;28;20040;-72
2023/12/02 07:05:21;;;;;;;0.60;0.60;;;4.00;65.50;;;;;;5051295;28;20354;-71
2023/12/02 07:07:47;;;;;;;0.60;0.60;;;4.00;65.60;;;;;;5051448;28;20043;-71
2023/12/02 07:10:13;;;;;;;0.50;0.50;;;4.00;65.60;;;;;;5051381;28;20067;-71
2023/12/02 07:12:38;;;;;;;0.60;0.60;;;4.00;65.70;;;;;;5051494;28;20057;-72
2023/12/02 07:15:06;;;;;;;0.68;0.68;;;4.00;65.80;;;;;;5051417;28;20462;-72
2023/12/02 07:17:32;;;;;;;0.65;0.65;;;4.00;65.70;;;;;;5051570;28;20391;-73
2023/12/02 07:19:57;;;;;;;0.63;0.63;;;4.00;65.60;;;;;;5051187;28;20033;-72
2023/12/02 07:22:23;;;;;;;0.70;0.70;;;4.00;65.40;;;;;;5050126;28;20404;-72
2023/12/02 07:24:48;;;;;;;0.50;0.50;;;4.00;65.50;;;;;;5051026;28;20429;-72
2023/12/02 07:27:14;;;;;;;0.57;0.57;;;4.00;65.40;;;;;;5051080;28;20040;-70
2023/12/02 07:29:39;;;;;;;1.35;1.13;;;3.90;65.40;;;;;;5051612;28;20096;-70
2023/12/02 07:32:05;;;;;;;0.63;0.63;;;3.90;65.50;;;;;;5051421;28;20056;-70
2023/12/02 07:34:31;;;;;;;0.60;0.60;;;3.90;65.60;;;;;;5051167;28;20029;-70
2023/12/02 07:36:56;;;;;;;2.53;2.33;;;3.90;65.60;;;;;;5052169;28;20036;-70
2023/12/02 07:39:22;;;;;;;0.60;0.60;;;4.00;65.80;;;;;;5052298;28;20480;-70
2023/12/02 07:41:49;;;;;;;0.50;0.50;;;4.00;66.00;;;;;;5050499;28;20443;-70
2023/12/02 07:44:15;;;;;;;0.77;0.77;;;4.00;66.00;;;;;;5050094;28;20029;-71
2023/12/02 07:46:40;;;;;;;0.50;0.50;;;4.00;65.80;;;;;;5052419;28;20393;-77
2023/12/02 07:49:06;;;;;;;0.60;0.60;;;4.00;66.00;;;;;;5050838;28;20106;-70
2023/12/02 07:51:31;;;;;;;1.55;1.23;;;4.10;66.20;;;;;;5051289;28;20061;-70
2023/12/02 07:53:57;;;;;;;1.20;1.02;;;4.20;66.40;;;;;;5049185;28;20025;-70
2023/12/02 07:56:22;;;;;;;0.60;0.60;;;4.20;66.50;;;;;;5049232;28;20047;-69
2023/12/02 07:58:48;;;;;;;0.60;0.60;;;4.30;66.60;;;;;;5050766;28;20053;-69
2023/12/02 08:01:14;;;;;;;0.50;0.50;;;4.40;66.70;;;;;;5051230;28;20500;-70
2023/12/02 08:03:39;;;;;;;0.57;0.57;;;4.50;66.70;;;;;;5050703;28;20033;-70
2023/12/02 08:06:05;;;;;;;1.23;1.13;;;4.50;66.70;;;;;;5048257;28;20025;-70
2023/12/02 08:08:30;;;;;;;0.60;0.60;;;4.60;66.80;;;;;;5053234;28;20398;-70
2023/12/02 08:10:56;;;;;;;0.70;0.70;;;4.60;66.70;;;;;;5054276;28;20057;-70
2023/12/02 08:13:22;;;;;;;0.90;0.90;;;4.70;66.90;;;;;;5054098;28;20514;-69
2023/12/02 08:15:48;;;;;;;0.50;0.50;;;4.70;67.00;;;;;;5050278;28;20087;-69
2023/12/02 08:18:15;;;;;;;0.80;0.80;;;4.80;67.00;;;;;;5053640;28;20037;-70
2023/12/02 08:20:41;;;;;;;1.42;1.33;;;4.80;67.00;;;;;;5054152;28;20096;-70
2023/12/02 08:23:07;;;;;;;1.05;1.00;;;4.90;67.00;;;;;;5053323;28;20516;-70
2023/12/02 08:25:33;;;;;;;0.93;0.90;;;5.00;67.10;;;;;;5050515;28;20033;-70
2023/12/02 08:27:58;;;;;;;0.50;0.50;;;5.10;67.10;;;;;;5050277;28;20423;-71
2023/12/02 08:30:24;;;;;;;0.55;0.55;;;5.20;67.30;;;;;;5053624;28;20025;-70
2023/12/02 08:32:50;;;;;;;2.20;1.40;;;5.20;67.20;;;;;;5053458;28;20043;-70
2023/12/02 08:35:15;;;;;;;0.90;0.90;;;5.30;67.50;;;;;;5050033;28;20041;-70
2023/12/02 08:37:41;;;;;;;0.80;0.80;;;5.40;67.50;;;;;;5052774;28;20492;-70
2023/12/02 08:40:08;;;;;;;0.90;0.90;;;5.50;67.50;;;;;;5052467;28;20036;-70
2023/12/02 08:42:33;;;;;;;1.05;1.05;;;5.60;67.60;;;;;;5051466;28;20063;-70
2023/12/02 08:44:58;;;;;;;0.63;0.63;;;5.60;67.20;;;;;;5048903;28;20069;-70
2023/12/02 08:47:24;;;;;;;0.95;0.95;;;5.70;67.50;;;;;;5052892;28;20109;-70
2023/12/02 08:49:49;;;;;;;0.63;0.63;;;5.80;67.30;;;;;;5053074;28;20036;-70
2023/12/02 08:52:15;;;;;;;0.85;0.85;;;5.80;67.50;;;;;;5052498;28;20495;-70
2023/12/02 08:54:40;;;;;;;0.73;0.73;;;5.90;67.50;;;;;;5051930;28;20025;-70
2023/12/02 08:57:06;;;;;;;8.73;3.03;;;6.00;67.60;;;;;;5050572;28;20268;-69
2023/12/02 08:59:31;;;;;;;0.93;0.93;;;6.00;67.50;;;;;;5051264;28;20032;-70
2023/12/02 09:01:57;;;;;;;1.30;1.20;;;6.10;67.20;;;;;;5052419;28;20457;-70
2023/12/02 09:04:23;;;;;;;2.47;1.60;;;6.10;67.20;;;;;;5048603;28;20559;-71
2023/12/02 09:06:48;;;;;;;3.25;1.45;;;6.20;67.00;;;;;;5052211;28;20060;-69
2023/12/02 09:09:14;;;;;;;0.75;0.75;;;6.20;66.90;;;;;;5049041;28;20028;-70
2023/12/02 09:11:41;;;;;;;0.70;0.70;;;6.20;67.00;;;;;;5057059;28;20032;-70
2023/12/02 09:14:07;;;;;;;0.80;0.80;;;6.30;67.10;;;;;;5044288;28;20022;-71
2023/12/02 09:16:32;;;;;;;0.60;0.60;;;6.30;67.10;;;;;;5051481;28;20032;-71
2023/12/02 09:18:58;;;;;;;0.57;0.57;;;6.40;67.00;;;;;;5051436;28;20048;-69
2023/12/02 09:21:29;;;;;;;0.80;0.80;;;6.40;66.80;;;;;;5048651;28;20043;-69
2023/12/02 09:24:03;;;;;;;0.95;0.95;;;6.50;66.70;;;;;;5055406;28;20070;-69
2023/12/02 09:26:41;;;;;;;0.52;0.52;;;6.50;66.80;;;;;;5052576;28;20162;-69
2023/12/02 09:29:07;;;;;;;0.90;0.90;;;6.50;66.90;;;;;;5049153;28;20392;-70
2023/12/02 09:31:32;;;;;;;0.70;0.70;;;6.60;67.00;;;;;;5053814;28;20029;-69
2023/12/02 09:34:02;;;;;;;2.50;1.05;;;6.60;67.00;;;;;;5054377;28;20465;-71
2023/12/02 09:36:36;;;;;;;0.60;0.60;;;6.70;67.00;;;;;;5060503;28;20403;-70
2023/12/02 09:39:08;;;;;;;0.60;0.60;;;6.70;66.80;;;;;;5058599;28;20104;-70
2023/12/02 09:41:50;;;;;;;0.75;0.75;;;6.60;66.70;;;;;;5055349;28;20454;-71
2023/12/02 09:44:34;;;;;;;0.60;0.60;;;6.60;66.70;;;;;;5053602;28;20033;-70
2023/12/02 09:47:19;;;;;;;0.65;0.65;;;6.60;66.60;;;;;;5063861;28;20598;-73
2023/12/02 09:50:01;;;;;;;0.50;0.50;;;6.60;66.70;;;;;;5061520;28;20391;-74
2023/12/02 09:52:43;;;;;;;0.70;0.70;;;6.60;66.80;;;;;;5061826;28;20439;-75
2023/12/02 09:55:15;;;;;;;1.23;1.17;;;6.60;66.60;;;;;;5056007;28;20033;-74
2023/12/02 09:58:08;;;;;;;1.45;1.35;;;6.50;66.20;;;;;;5053690;28;20020;-73
2023/12/02 10:00:48;;;;;;;0.70;0.70;;;6.50;66.30;;;;;;5054631;28;20037;-73
2023/12/02 10:03:38;;;;;;;1.05;1.05;;;6.40;66.60;;;;;;5058227;28;20021;-74
2023/12/02 10:06:34;;;;;;;0.60;0.60;;;6.40;66.70;;;;;;5049031;28;20533;-73
2023/12/02 10:09:24;;;;;;;0.65;0.65;;;6.30;66.70;;;;;;5055020;28;20025;-75
2023/12/02 10:12:01;;;;;;;0.60;0.60;;;6.30;66.80;;;;;;5055772;28;20024;-76
2023/12/02 10:14:28;;;;;;;1.75;1.25;;;6.30;67.00;;;;;;5062586;28;20032;-76
2023/12/02 10:16:55;;;;;;;0.98;0.98;;;6.30;66.90;;;;;;5064071;28;20029;-76
2023/12/02 10:19:33;;;;;;;0.57;0.57;;;6.40;67.00;;;;;;5068247;28;20533;-75
2023/12/02 10:22:02;;;;;;;0.63;0.63;;;6.50;67.10;;;;;;5057653;28;20028;-76
2023/12/02 10:24:44;;;;;;;0.50;0.50;;;6.60;66.90;;;;;;5064881;28;20032;-76
2023/12/02 10:27:14;;;;;;;0.88;0.88;;;6.60;66.70;;;;;;5055284;28;20037;-76
2023/12/02 10:29:54;;;;;;;0.68;0.68;;;6.60;66.60;;;;;;5066444;28;20027;-76
2023/12/02 10:32:45;;;;;;;0.55;0.55;;;6.60;66.60;;;;;;5058564;28;20032;-76
2023/12/02 10:35:17;;;;;;;0.50;0.50;;;6.60;66.50;;;;;;5056598;28;20035;-76
2023/12/02 10:37:43;;;;;;;0.47;0.47;;;6.60;66.50;;;;;;5066826;28;20036;-76
2023/12/02 10:40:12;;;;;;;0.60;0.60;;;6.60;66.20;;;;;;5058305;28;20060;-77
2023/12/02 10:43:02;;;;;;;0.77;0.77;;;6.50;66.50;;;;;;5057734;28;20047;-77
2023/12/02 10:45:30;;;;;;;0.90;0.90;;;6.50;66.50;;;;;;5047577;28;20124;-77
2023/12/02 10:47:58;;;;;;;0.68;0.68;;;6.50;66.80;;;;;;5043687;28;20546;-78
2023/12/02 10:50:25;;;;;;;1.35;1.25;;;6.50;67.10;;;;;;5044653;28;20052;-77
2023/12/02 10:53:01;;;;;;;0.73;0.73;;;6.60;67.30;;;;;;5053572;28;20389;-77
2023/12/02 10:55:30;;;;;;;0.55;0.55;;;6.50;67.10;;;;;;5065820;28;20029;-77
2023/12/02 10:57:57;;;;;;;1.65;1.45;;;6.60;67.10;;;;;;5057558;28;20039;-77
2023/12/02 11:00:27;;;;;;;0.80;0.80;;;6.60;66.80;;;;;;5061672;28;20044;-77
2023/12/02 11:03:09;;;;;;;0.52;0.52;;;6.50;66.70;;;;;;5058346;28;20484;-77
2023/12/02 11:05:45;;;;;;;0.60;0.60;;;6.50;67.00;;;;;;5062390;28;20090;-77
2023/12/02 11:08:18;;;;;;;0.60;0.60;;;6.50;67.20;;;;;;5061224;28;20029;-78
2023/12/02 11:10:47;;;;;;;0.73;0.73;;;6.50;67.30;;;;;;5061331;28;20535;-78
2023/12/02 11:13:20;;;;;;;3.58;1.85;;;6.50;67.10;;;;;;5055543;28;20044;-78
2023/12/02 11:16:07;;;;;;;0.75;0.75;;;6.50;67.10;;;;;;5052480;28;20040;-78
2023/12/02 11:19:10;;;;;;;7.78;2.20;;;6.50;67.30;;;;;;5040050;28;20044;-78
2023/12/02 11:22:09;;;;;;;0.50;0.50;;;6.60;67.40;;;;;;5049929;28;20032;-78
2023/12/02 11:24:35;;;;;;;2.00;1.05;;;6.60;67.60;;;;;;5050125;28;20021;-77
2023/12/02 11:27:22;;;;;;;0.52;0.52;;;6.60;67.80;;;;;;5052029;28;20037;-78
2023/12/02 11:29:50;;;;;;;0.85;0.85;;;6.60;67.90;;;;;;5049476;28;20013;-78
2023/12/02 11:32:26;;;;;;;2.13;1.02;;;6.70;67.60;;;;;;5051804;28;20104;-77
2023/12/02 11:35:37;;;;;;;1.17;1.08;;;6.60;67.20;;;;;;5048001;28;20021;-77
2023/12/02 11:38:19;;;;;;;1.20;1.13;;;6.50;66.90;;;;;;5035855;28;20459;-76
2023/12/02 11:40:50;;;;;;;0.90;0.90;;;6.50;67.20;;;;;;5050235;28;20025;-77
2023/12/02 11:43:53;;;;;;;1.95;1.45;;;6.50;67.60;;;;;;5052509;28;20114;-78
2023/12/02 11:46:23;;;;;;;1.63;1.52;;;6.50;67.50;;;;;;5054842;28;20036;-78
2023/12/02 11:49:23;;;;;;;0.93;0.93;;;6.50;67.50;;;;;;5066870;28;20070;-78
2023/12/02 11:57:03;;;;;;;0.65;0.65;;;6.40;68.00;;;;;;5722379;22;20045;-70
2023/12/02 11:59:43;;;;;;;0.90;0.90;;;6.40;67.70;;;;;;5037316;22;20404;-69
2023/12/02 12:02:27;;;;;;;0.50;0.50;;;6.40;68.20;;;;;;5013823;28;20072;-71
2023/12/02 12:05:27;;;;;;;2.67;0.98;;;6.40;68.00;;;;;;5030409;28;20025;-70
2023/12/02 12:08:18;;;;;;;0.63;0.63;;;6.40;67.90;;;;;;5031692;28;20496;-71
2023/12/02 12:10:46;;;;;;;;;;;6.30;67.70;;;;;;5028896;28;20026;-70
2023/12/02 12:13:14;;;;;;;1.00;0.80;;;6.30;67.90;;;;;;5032565;28;20406;-71
2023/12/02 12:15:40;;;;;;;1.33;1.23;;;6.20;67.80;;;;;;5033073;28;20100;-71
2023/12/02 12:18:05;;;;;;;0.60;0.60;;;6.20;67.70;;;;;;5030585;28;20112;-71
2023/12/02 12:20:31;;;;;;;0.95;0.93;;;6.20;67.90;;;;;;5028339;28;20033;-70
2023/12/02 12:22:57;;;;;;;1.05;1.05;;;6.20;68.00;;;;;;5015754;28;20037;-71
2023/12/02 12:25:28;;;;;;;1.85;1.45;;;6.20;68.20;;;;;;5028290;28;20029;-70
2023/12/02 12:27:59;;;;;;;1.33;1.25;;;6.20;68.10;;;;;;5026664;28;20079;-71
2023/12/02 12:30:24;;;;;;;0.70;0.70;;;6.20;68.10;;;;;;5029929;28;20021;-71
2023/12/02 12:32:50;;;;;;;0.70;0.70;;;6.20;67.90;;;;;;5030494;28;20105;-72
2023/12/02 12:35:16;;;;;;;1.33;1.25;;;6.20;67.80;;;;;;5031430;28;20056;-71
2023/12/02 12:37:41;;;;;;;0.60;0.60;;;6.20;67.80;;;;;;5031423;28;20037;-71
2023/12/02 12:40:11;;;;;;;1.75;1.38;;;6.20;67.80;;;;;;5032813;28;20033;-72
2023/12/02 12:42:47;;;;;;;0.60;0.60;;;6.20;67.90;;;;;;5013573;28;20106;-71
2023/12/02 12:45:13;;;;;;;0.52;0.52;;;6.10;67.80;;;;;;5030329;28;20029;-71
2023/12/02 12:47:42;;;;;;;0.60;0.60;;;6.10;67.70;;;;;;5027483;28;20384;-71
2023/12/02 12:50:11;;;;;;;2.67;2.47;;;6.10;67.90;;;;;;5031384;28;20025;-71
2023/12/02 12:52:42;;;;;;;3.45;2.08;;;6.10;68.00;;;;;;5012453;28;20108;-71
2023/12/02 12:55:09;;;;;;;0.82;0.82;;;6.00;67.90;;;;;;5031511;28;20040;-71
2023/12/02 12:57:45;;;;;;;0.60;0.60;;;6.10;67.90;;;;;;5030067;28;20416;-71
2023/12/02 13:00:14;;;;;;;0.60;0.60;;;6.00;68.00;;;;;;5019818;28;20484;-72
2023/12/02 13:03:12;;;;;;;0.73;0.73;;;6.00;67.90;;;;;;5022419;28;20034;-71
2023/12/02 13:05:45;;;;;;;0.50;0.50;;;6.00;67.80;;;;;;5022495;28;20485;-72
2023/12/02 13:08:31;;;;;;;0.68;0.68;;;5.90;67.80;;;;;;5019407;28;20440;-79